< < Back
Terminal Aerodrome Forecast


Current Version              Previous Versions:   1  2  3  4  5  6  7  8  9  

Terminal Aerodrome Forecast

187
FTUS42 KILM 242300 CCA
TAFFLO
TAF COR
KFLO 242359Z 2500/2524 VRB10KT 4SM -TSRA SCT015 BKN040CB
      TEMPO 2500/2502 2SM TSRA
     FM250300 VRB03KT P6SM SCT050 SCT100 BKN250
      TEMPO 2508/2512 4SM BR
     FM251400 01005KT P6SM VCSH SCT050 BKN100=

Latest METAR

638
SAUS70 KWBC 250500 RRI
MTRFLO
METAR KFLO 250453Z AUTO 33003KT 7SM FEW055 24/23 A2994 RMK AO2 LTG DSNT
N AND SE AND S SLP136 T02390228 403440233


USA.gov is the U.S. government's official web portal to all federal, state and local government web resources and services.